Time;durP1;ratioP1;P1;durP2;ratioP2;P2;SDS_P1;SDS_P2;PMS_P1;PMS_P2;Temp;Humidity;BMP_temperature;BMP_pressure;BME280_temperature;BME280_humidity;BME280_pressure;Samples;Min_cycle;Max_cycle;Signal;HPM_P1;HPM_P2
2023/05/05 00:01:52;;;;;;;3.13;1.45;;;;;;;0.00;0.00;74228.41;10598271;27;20039;-75
2023/05/05 00:06:54;;;;;;;6.85;1.88;;;;;;;0.00;0.00;74231.44;10595539;27;20043;-75
2023/05/05 00:11:55;;;;;;;2.50;1.25;;;;;;;0.00;0.00;74236.03;10594701;27;20046;-76
2023/05/05 00:16:57;;;;;;;3.33;1.70;;;;;;;0.00;0.00;74234.50;10586804;27;20530;-75
2023/05/05 00:21:58;;;;;;;3.53;2.38;;;;;;;0.00;0.00;74234.50;10604892;27;20203;-75
2023/05/05 00:27:01;;;;;;;3.53;1.77;;;;;;;0.00;0.00;74236.03;10611026;27;20589;-74
2023/05/05 00:32:02;;;;;;;2.13;1.15;;;;;;;0.00;0.00;74236.03;10595521;27;20039;-75
2023/05/05 00:37:04;;;;;;;4.28;1.48;;;;;;;0.00;0.00;74234.50;10579260;27;20043;-75
2023/05/05 00:42:06;;;;;;;3.53;1.73;;;;;;;0.00;0.00;74231.44;10586586;27;20044;-75
2023/05/05 00:47:08;;;;;;;3.45;1.50;;;;;;;0.00;0.00;74234.50;10594014;27;20074;-74
2023/05/05 00:52:10;;;;;;;1.63;1.27;;;;;;;0.00;0.00;74239.09;10593859;27;20039;-75
2023/05/05 00:57:12;;;;;;;1.50;1.10;;;;;;;0.00;0.00;74240.59;10598284;27;20035;-75
2023/05/05 01:02:14;;;;;;;6.10;1.27;;;;;;;0.00;0.00;74243.66;10597942;27;20078;-74
2023/05/05 01:07:36;;;;;;;7.50;1.58;;;;;;;0.00;0.00;74243.66;10602154;27;20530;-75
2023/05/05 01:13:04;;;;;;;3.90;1.67;;;;;;;0.00;0.00;74234.50;10567910;27;20031;-74
2023/05/05 01:18:18;;;;;;;2.58;1.05;;;;;;;0.00;0.00;74234.50;10596371;27;20407;-75
2023/05/05 01:23:53;;;;;;;2.53;1.25;;;;;;;0.00;0.00;74237.56;10583936;27;20417;-75
2023/05/05 01:29:07;;;;;;;4.00;1.92;;;;;;;0.00;0.00;74240.59;10567913;27;20043;-76
2023/05/05 01:34:15;;;;;;;4.03;1.10;;;;;;;0.00;0.00;74236.03;10598267;27;20801;-75
2023/05/05 01:39:18;;;;;;;2.22;1.20;;;;;;;0.00;0.00;74240.59;10582656;27;20139;-75
2023/05/05 01:44:20;;;;;;;1.38;1.00;;;;;;;0.00;0.00;74245.19;10573174;27;20039;-74
2023/05/05 01:49:22;;;;;;;1.63;0.82;;;;;;;0.00;0.00;74246.72;10578712;27;20406;-74
2023/05/05 01:54:25;;;;;;;4.00;1.17;;;;;;;0.00;0.00;74246.72;10581737;27;20035;-75
2023/05/05 01:59:28;;;;;;;1.88;0.93;;;;;;;0.00;0.00;74255.88;10581623;27;20063;-75
2023/05/05 02:04:32;;;;;;;2.72;1.05;;;;;;;0.00;0.00;74260.44;10581570;27;20039;-75
2023/05/05 02:09:35;;;;;;;2.95;0.93;;;;;;;0.00;0.00;74255.88;10584212;27;20515;-76
2023/05/05 02:14:39;;;;;;;3.28;1.33;;;;;;;0.00;0.00;74258.91;10598071;27;20043;-76
2023/05/05 02:19:43;;;;;;;3.65;1.48;;;;;;;0.00;0.00;74261.97;10583395;27;20084;-76
2023/05/05 02:24:45;;;;;;;8.15;1.13;;;;;;;0.00;0.00;74268.06;10581810;27;20602;-75
2023/05/05 02:29:50;;;;;;;2.55;0.90;;;;;;;0.00;0.00;74278.75;10606397;27;20055;-76
2023/05/05 02:34:53;;;;;;;2.50;1.23;;;;;;;0.00;0.00;74277.22;10607642;27;20050;-74
2023/05/05 02:40:04;;;;;;;2.78;1.45;;;;;;;0.00;0.00;74274.19;10581426;27;20039;-76
2023/05/05 02:45:20;;;;;;;8.70;1.20;;;;;;;0.00;0.00;74274.19;10574996;27;20051;-75
2023/05/05 02:50:23;;;;;;;11.18;1.20;;;;;;;0.00;0.00;74278.75;10570691;27;20177;-75
2023/05/05 02:55:44;;;;;;;1.80;1.10;;;;;;;0.00;0.00;74287.91;10585224;27;20035;-76
2023/05/05 03:00:57;;;;;;;1.90;1.48;;;;;;;0.00;0.00;74292.50;10588369;27;20554;-75
2023/05/05 03:06:06;;;;;;;1.02;0.80;;;;;;;0.00;0.00;74289.44;10587174;27;20047;-75
2023/05/05 03:11:17;;;;;;;3.78;1.45;;;;;;;0.00;0.00;74289.44;10589226;27;20108;-74
2023/05/05 03:16:24;;;;;;;1.92;1.00;;;;;;;0.00;0.00;74290.97;10581330;27;20557;-74
2023/05/05 03:21:27;;;;;;;5.90;0.98;;;;;;;0.00;0.00;74287.91;10588257;27;20057;-74
2023/05/05 03:26:30;;;;;;;2.70;1.20;;;;;;;0.00;0.00;74292.50;10583900;27;20119;-75
2023/05/05 03:31:32;;;;;;;2.45;1.15;;;;;;;0.00;0.00;74298.59;10583679;27;20047;-75
2023/05/05 03:36:35;;;;;;;4.93;1.80;;;;;;;0.00;0.00;74304.69;10598397;27;20452;-74
2023/05/05 03:41:37;;;;;;;4.80;1.40;;;;;;;0.00;0.00;74310.78;10579799;28;20466;-75
2023/05/05 03:46:41;;;;;;;7.65;1.90;;;;;;;0.00;0.00;74312.31;10571677;28;20039;-74
2023/05/05 03:51:47;;;;;;;2.53;1.20;;;;;;;0.00;0.00;74313.84;10554125;28;20137;-74
2023/05/05 03:56:49;;;;;;;3.83;1.38;;;;;;;0.00;0.00;74313.84;10584237;28;20039;-74
2023/05/05 04:01:51;;;;;;;3.15;1.58;;;;;;;0.00;0.00;74312.31;10607099;28;20043;-74
2023/05/05 04:06:52;;;;;;;4.20;1.58;;;;;;;0.00;0.00;74321.47;10587095;28;20035;-74
2023/05/05 04:11:54;;;;;;;1.38;0.77;;;;;;;0.00;0.00;74298.59;10579843;27;20043;-75
2023/05/05 04:16:56;;;;;;;2.20;1.20;;;;;;;0.00;0.00;74289.44;10561772;28;20039;-74
2023/05/05 04:21:58;;;;;;;2.72;1.15;;;;;;;0.00;0.00;74277.22;10562310;28;20058;-74
2023/05/05 04:27:02;;;;;;;2.80;1.02;;;;;;;0.00;0.00;74289.44;10560099;28;20108;-74
2023/05/05 04:32:05;;;;;;;1.88;1.02;;;;;;;0.00;0.00;74289.44;10587800;27;20047;-75
2023/05/05 04:37:07;;;;;;;3.15;1.10;;;;;;;0.00;0.00;74287.91;10602525;27;20742;-75
2023/05/05 04:42:09;;;;;;;2.38;1.23;;;;;;;0.00;0.00;74289.44;10576081;27;20039;-75
2023/05/05 04:47:10;;;;;;;3.05;1.10;;;;;;;0.00;0.00;74283.34;10568222;27;20035;-74
2023/05/05 04:52:15;;;;;;;3.08;1.30;;;;;;;0.00;0.00;74274.19;10562054;27;20080;-75
2023/05/05 04:57:17;;;;;;;1.35;1.00;;;;;;;0.00;0.00;74261.97;10585258;27;20039;-74
2023/05/05 05:02:19;;;;;;;2.47;1.20;;;;;;;0.00;0.00;74249.75;10604038;27;20040;-75
2023/05/05 05:07:23;;;;;;;5.13;1.13;;;;;;;0.00;0.00;74263.50;10581864;27;20039;-75
2023/05/05 05:12:25;;;;;;;3.60;1.30;;;;;;;0.00;0.00;74257.38;10561067;27;20052;-75
2023/05/05 05:17:28;;;;;;;2.25;1.65;;;;;;;0.00;0.00;74220.78;10600416;27;20045;-74
2023/05/05 05:22:31;;;;;;;3.35;1.15;;;;;;;0.00;0.00;74197.88;10581409;27;20035;-75
2023/05/05 05:27:33;;;;;;;3.10;1.15;;;;;;;0.00;0.00;74197.88;10608940;27;20038;-75
2023/05/05 05:32:34;;;;;;;2.83;1.30;;;;;;;0.00;0.00;74191.78;10609198;27;20047;-75
2023/05/05 05:37:36;;;;;;;2.83;1.48;;;;;;;0.00;0.00;74175.00;10573303;27;20567;-75
2023/05/05 05:42:40;;;;;;;1.98;1.33;;;;;;;0.00;0.00;74179.56;10573545;27;20062;-74
2023/05/05 05:47:42;;;;;;;5.65;1.58;;;;;;;0.00;0.00;74170.41;10582254;27;20050;-75
2023/05/05 05:52:45;;;;;;;3.30;1.30;;;;;;;0.00;0.00;74171.94;10572548;27;20590;-75
2023/05/05 05:57:47;;;;;;;3.08;1.40;;;;;;;0.00;0.00;74179.56;10575468;27;20047;-75
2023/05/05 06:02:50;;;;;;;3.90;1.50;;;;;;;0.00;0.00;74176.53;10575858;27;20142;-75
2023/05/05 06:07:55;;;;;;;6.20;1.77;;;;;;;0.00;0.00;74191.78;10569925;27;20168;-75
2023/05/05 06:12:59;;;;;;;2.83;1.40;;;;;;;0.00;0.00;74217.72;10580748;27;20043;-75
2023/05/05 06:18:01;;;;;;;5.43;1.52;;;;;;;0.00;0.00;74239.09;10572525;27;20035;-75
2023/05/05 06:23:04;;;;;;;3.88;2.00;;;;;;;0.00;0.00;74240.59;10571853;27;20043;-75
2023/05/05 06:28:09;;;;;;;3.92;1.67;;;;;;;0.00;0.00;74246.72;10580027;27;20075;-75
2023/05/05 06:33:11;;;;;;;3.33;1.50;;;;;;;0.00;0.00;74265.03;10590562;27;20047;-75
2023/05/05 06:38:13;;;;;;;2.70;1.20;;;;;;;0.00;0.00;74286.38;10578020;27;20143;-75
2023/05/05 06:43:15;;;;;;;2.58;1.40;;;;;;;0.00;0.00;74289.44;10609432;27;20414;-77
2023/05/05 06:48:25;;;;;;;5.38;1.52;;;;;;;0.00;0.00;74300.13;10583697;27;20064;-79
2023/05/05 06:53:27;;;;;;;4.15;1.60;;;;;;;0.00;0.00;74312.31;10581387;27;20054;-81
2023/05/05 06:58:28;;;;;;;6.95;2.28;;;;;;;0.00;0.00;74310.78;10594513;27;20443;-77
2023/05/05 07:03:30;;;;;;;2.53;1.38;;;;;;;0.00;0.00;74313.84;10574605;27;20174;-78
2023/05/05 07:08:32;;;;;;;3.00;1.38;;;;;;;0.00;0.00;74315.38;10616056;27;20039;-79
2023/05/05 07:13:33;;;;;;;2.88;1.48;;;;;;;0.00;0.00;74310.78;10588654;27;20538;-81
2023/05/05 07:18:35;;;;;;;9.38;1.90;;;;;;;0.00;0.00;74319.94;10615969;27;20039;-79
2023/05/05 07:23:37;;;;;;;4.05;1.70;;;;;;;0.00;0.00;74324.53;10588433;27;20039;-79
2023/05/05 07:28:40;;;;;;;2.28;1.50;;;;;;;0.00;0.00;74289.44;10607457;27;20039;-79
2023/05/05 07:33:42;;;;;;;3.40;1.48;;;;;;;0.00;0.00;74287.91;10600141;27;20044;-81
2023/05/05 07:38:43;;;;;;;6.65;2.08;;;;;;;0.00;0.00;74283.34;10587711;28;20047;-83
2023/05/05 07:43:45;;;;;;;3.20;1.52;;;;;;;0.00;0.00;74257.38;10589789;28;20262;-82
2023/05/05 07:48:47;;;;;;;4.55;1.77;;;;;;;0.00;0.00;74237.56;10597095;28;20583;-82
2023/05/05 07:53:48;;;;;;;4.43;1.92;;;;;;;0.00;0.00;74234.50;10608527;27;20047;-81
2023/05/05 07:58:50;;;;;;;5.10;2.35;;;;;;;0.00;0.00;74210.09;10588603;28;20043;-81
2023/05/05 08:03:52;;;;;;;3.90;1.73;;;;;;;0.00;0.00;74194.81;10608174;27;20070;-80
2023/05/05 08:08:54;;;;;;;3.35;1.60;;;;;;;0.00;0.00;74197.88;10596141;27;20038;-81
2023/05/05 08:13:57;;;;;;;5.45;2.05;;;;;;;0.00;0.00;74199.41;10618555;27;20039;-80
2023/05/05 08:18:59;;;;;;;4.20;2.05;;;;;;;0.00;0.00;74191.78;10588742;27;20223;-79
2023/05/05 08:24:00;;;;;;;6.25;2.22;;;;;;;0.00;0.00;74199.41;10611205;27;20104;-79
2023/05/05 08:29:02;;;;;;;4.80;2.05;;;;;;;0.00;0.00;74187.19;10608263;27;20047;-78
2023/05/05 08:34:04;;;;;;;5.00;2.10;;;;;;;0.00;0.00;74155.16;10605247;27;20498;-78
2023/05/05 08:39:06;;;;;;;6.07;2.50;;;;;;;0.00;0.00;74147.53;10621453;27;20430;-78
2023/05/05 08:44:09;;;;;;;4.55;1.50;;;;;;;0.00;0.00;74156.69;10621415;27;20115;-78
2023/05/05 08:49:15;;;;;;;5.60;1.83;;;;;;;0.00;0.00;74129.22;10604589;27;20205;-77
2023/05/05 08:54:25;;;;;;;6.07;2.17;;;;;;;0.00;0.00;74127.69;10593156;27;20088;-78
2023/05/05 08:59:30;;;;;;;6.20;1.95;;;;;;;0.00;0.00;74115.47;10603189;27;20446;-78
2023/05/05 09:04:33;;;;;;;7.57;1.98;;;;;;;0.00;0.00;74112.44;10599860;27;20055;-77
2023/05/05 09:09:35;;;;;;;4.80;2.05;;;;;;;0.00;0.00;74092.59;10587373;27;20108;-78
2023/05/05 09:14:37;;;;;;;5.68;2.22;;;;;;;0.00;0.00;74060.56;10601741;27;20162;-77
2023/05/05 09:19:58;;;;;;;6.03;2.42;;;;;;;0.00;0.00;74063.59;10586272;27;20058;-78
2023/05/05 09:25:00;;;;;;;6.45;2.17;;;;;;;0.00;0.00;73988.84;10568510;27;20065;-76
2023/05/05 09:30:04;;;;;;;4.78;2.05;;;;;;;0.00;0.00;73938.47;10589687;27;20039;-76
2023/05/05 09:35:06;;;;;;;11.07;2.58;;;;;;;0.00;0.00;73932.38;10575354;27;20723;-76
2023/05/05 09:40:13;;;;;;;6.43;2.13;;;;;;;0.00;0.00;73914.06;10604581;27;20063;-76
2023/05/05 09:45:17;;;;;;;4.95;2.10;;;;;;;0.00;0.00;73866.75;10567639;28;20143;-76
2023/05/05 09:50:22;;;;;;;6.07;2.20;;;;;;;0.00;0.00;73810.31;10575311;27;20054;-76
2023/05/05 09:55:24;;;;;;;5.47;2.17;;;;;;;0.00;0.00;73788.94;10549037;28;20135;-76
2023/05/05 10:00:38;;;;;;;8.75;2.35;;;;;;;0.00;0.00;73766.06;10567479;28;20407;-76
2023/05/05 10:05:49;;;;;;;5.00;2.53;;;;;;;0.00;0.00;73701.97;10568335;28;20043;-76
2023/05/05 10:10:56;;;;;;;10.43;2.22;;;;;;;0.00;0.00;73682.13;10549059;28;20036;-76
2023/05/05 10:15:59;;;;;;;6.47;2.45;;;;;;;0.00;0.00;73663.81;10581948;27;20040;-76
2023/05/05 10:21:03;;;;;;;6.82;2.80;;;;;;;0.00;0.00;73659.25;10566810;28;20070;-76
2023/05/05 10:26:06;;;;;;;8.07;2.85;;;;;;;0.00;0.00;73663.81;10548120;28;20127;-76
2023/05/05 10:31:25;;;;;;;6.60;2.80;;;;;;;0.00;0.00;73648.56;10547989;28;20048;-76
2023/05/05 10:36:28;;;;;;;6.67;2.90;;;;;;;0.00;0.00;73587.53;10558313;28;20142;-75
2023/05/05 10:41:32;;;;;;;6.55;2.50;;;;;;;0.00;0.00;73521.91;10566295;28;20120;-76
2023/05/05 10:46:34;;;;;;;8.20;2.80;;;;;;;0.00;0.00;73508.19;10565388;28;20043;-76
2023/05/05 10:51:52;;;;;;;6.03;2.08;;;;;;;0.00;0.00;73561.59;10546966;28;20040;-76
2023/05/05 10:56:54;;;;;;;;;;;;;;;0.00;0.00;73547.84;10566189;28;20044;-76
2023/05/05 11:01:56;;;;;;;6.00;2.73;;;;;;;0.00;0.00;73526.50;10565687;28;19977;-76
2023/05/05 11:07:07;;;;;;;6.75;2.75;;;;;;;0.00;0.00;73462.41;10565298;28;20053;-76
2023/05/05 11:12:13;;;;;;;;;;;;;;;0.00;0.00;73425.78;10565251;28;20086;-75
2023/05/05 11:17:54;;;;;;;4.70;2.53;;;;;;;0.00;0.00;73386.09;10564092;28;19966;-75
2023/05/05 11:23:01;;;;;;;8.48;3.60;;;;;;;0.00;0.00;73381.53;10471088;28;20040;-76
2023/05/05 11:28:09;;;;;;;10.65;3.83;;;;;;;0.00;0.00;73389.16;10561808;27;20039;-75
2023/05/05 11:33:27;;;;;;;11.15;4.05;;;;;;;0.00;0.00;73357.13;10603543;27;24409;-76
2023/05/05 11:38:37;;;;;;;6.80;2.92;;;;;;;0.00;0.00;73315.91;10598309;27;20047;-76
2023/05/05 11:43:40;;;;;;;7.47;3.47;;;;;;;0.00;0.00;73288.44;10587039;27;20086;-76
2023/05/05 11:48:45;;;;;;;;;;;;;;;0.00;0.00;73326.59;10606874;27;20764;-75
2023/05/05 11:53:48;;;;;;;7.85;3.30;;;;;;;0.00;0.00;73325.06;10587695;27;19923;-75
2023/05/05 11:59:08;;;;;;;7.50;3.60;;;;;;;0.00;0.00;73276.25;10605296;27;20066;-76
2023/05/05 12:04:11;;;;;;;9.80;3.33;;;;;;;0.00;0.00;73323.53;10587507;28;20504;-76
2023/05/05 12:09:21;;;;;;;7.22;3.65;;;;;;;0.00;0.00;73305.25;10605686;27;20077;-76
2023/05/05 12:14:24;;;;;;;6.68;3.40;;;;;;;0.00;0.00;73299.13;10605089;27;20072;-76
2023/05/05 12:19:32;;;;;;;7.45;3.67;;;;;;;0.00;0.00;73280.81;10587573;28;20552;-76
2023/05/05 12:24:33;;;;;;;;;;;;;;;0.00;0.00;73320.50;10545052;28;20512;-76
2023/05/05 12:29:36;;;;;;;9.95;4.18;;;;;;;0.00;0.00;73285.41;10532415;28;19970;-75
2023/05/05 12:34:37;;;;;;;8.70;4.25;;;;;;;0.00;0.00;73264.03;10562765;28;20047;-76
2023/05/05 12:39:39;;;;;;;7.75;3.55;;;;;;;0.00;0.00;73224.38;10545282;28;20052;-76
2023/05/05 12:44:43;;;;;;;;;;;;;;;0.00;0.00;73248.78;10555985;28;20820;-76
2023/05/05 12:49:48;;;;;;;;;;;;;;;0.00;0.00;73254.88;10529162;28;20428;-76
2023/05/05 12:54:57;;;;;;;;;;;;;;;0.00;0.00;73212.16;10550666;28;19938;-76
2023/05/05 13:00:11;;;;;;;;;;;;;;;0.00;0.00;73236.56;10554594;28;19943;-76
2023/05/05 13:05:13;;;;;;;;;;;;;;;0.00;0.00;73204.53;10531462;28;19923;-76
2023/05/05 13:10:15;;;;;;;;;;;;;;;0.00;0.00;73172.47;10529655;28;20288;-75
2023/05/05 13:15:16;;;;;;;;;;;;;;;0.00;0.00;73218.25;10536269;28;19955;-76
2023/05/05 13:20:18;;;;;;;11.47;4.17;;;;;;;0.00;0.00;73186.22;10552799;28;19967;-75
2023/05/05 13:25:19;;;;;;;;;;;;;;;0.00;0.00;73235.03;10552788;28;20051;-76
2023/05/05 13:30:21;;;;;;;11.10;4.55;;;;;;;0.00;0.00;73218.25;10567044;28;20652;-76
2023/05/05 13:35:23;;;;;;;11.45;4.35;;;;;;;0.00;0.00;73195.38;10560598;28;20429;-76
2023/05/05 13:40:25;;;;;;;11.73;4.47;;;;;;;0.00;0.00;73207.59;10551037;28;20067;-76
2023/05/05 13:45:27;;;;;;;9.05;4.15;;;;;;;0.00;0.00;73189.28;10560310;28;20039;-76
2023/05/05 13:50:28;;;;;;;;;;;;;;;0.00;0.00;73215.22;10551144;28;20135;-76
2023/05/05 13:55:30;;;;;;;9.07;4.68;;;;;;;0.00;0.00;73210.63;10559191;28;19923;-75
2023/05/05 14:00:33;;;;;;;;;;;;;;;0.00;0.00;73207.59;10555993;28;20093;-77
2023/05/05 14:05:41;;;;;;;;;;;;;;;0.00;0.00;73199.94;10554124;28;19924;-76
2023/05/05 14:10:43;;;;;;;8.48;3.63;;;;;;;0.00;0.00;73196.91;10559343;28;19927;-77
2023/05/05 14:15:49;;;;;;;8.15;4.05;;;;;;;0.00;0.00;73174.00;10570287;28;20069;-78
2023/05/05 14:20:51;;;;;;;12.02;4.30;;;;;;;0.00;0.00;73169.44;10575370;28;20107;-79
2023/05/05 14:25:53;;;;;;;18.63;4.28;;;;;;;0.00;0.00;73140.44;10564319;28;20445;-77
2023/05/05 14:30:57;;;;;;;8.70;4.15;;;;;;;0.00;0.00;73152.66;10569446;28;20046;-77
2023/05/05 14:36:01;;;;;;;8.07;4.13;;;;;;;0.00;0.00;73154.19;10562408;28;20028;-78
2023/05/05 14:41:05;;;;;;;9.85;4.65;;;;;;;0.00;0.00;73155.69;10539601;28;20054;-79
2023/05/05 14:46:07;;;;;;;9.57;4.65;;;;;;;0.00;0.00;73152.66;10566885;28;20040;-76
2023/05/05 14:51:08;;;;;;;10.20;4.40;;;;;;;0.00;0.00;73164.84;10564587;28;20126;-75
2023/05/05 14:56:10;;;;;;;8.85;4.20;;;;;;;0.00;0.00;73180.13;10565128;28;20117;-76
2023/05/05 15:01:11;;;;;;;10.07;4.35;;;;;;;0.00;0.00;73189.28;10563416;28;20054;-76
2023/05/05 15:06:13;;;;;;;10.32;4.75;;;;;;;0.00;0.00;73203.00;10552757;28;20043;-75
2023/05/05 15:11:14;;;;;;;9.05;4.63;;;;;;;0.00;0.00;73224.38;10545049;28;20035;-77
2023/05/05 15:16:16;;;;;;;15.27;4.95;;;;;;;0.00;0.00;73239.63;10561451;28;20503;-76
2023/05/05 15:21:18;;;;;;;9.60;4.68;;;;;;;0.00;0.00;73257.94;10559720;28;20047;-77
2023/05/05 15:26:19;;;;;;;11.88;4.18;;;;;;;0.00;0.00;73267.09;10555100;28;20048;-77
2023/05/05 15:31:21;;;;;;;8.60;3.97;;;;;;;0.00;0.00;73267.09;10551965;28;20055;-72
2023/05/05 15:36:23;;;;;;;10.55;4.40;;;;;;;0.00;0.00;73282.34;10556223;28;20042;-73
2023/05/05 15:41:28;;;;;;;8.52;4.22;;;;;;;0.00;0.00;73285.41;10556992;28;20058;-72
2023/05/05 15:46:32;;;;;;;11.27;4.50;;;;;;;0.00;0.00;73302.19;10548243;28;20407;-73
2023/05/05 15:51:33;;;;;;;8.40;4.40;;;;;;;0.00;0.00;73315.91;10555736;28;20054;-73
2023/05/05 15:56:35;;;;;;;8.30;4.57;;;;;;;0.00;0.00;73337.28;10539839;28;20047;-74
2023/05/05 16:01:38;;;;;;;10.50;4.78;;;;;;;0.00;0.00;73361.69;10564927;28;20039;-75
2023/05/05 16:06:40;;;;;;;11.40;5.78;;;;;;;0.00;0.00;73392.22;10559655;28;20040;-81
2023/05/05 16:11:42;;;;;;;12.55;6.22;;;;;;;0.00;0.00;73419.69;10555234;28;20036;-76
2023/05/05 16:16:44;;;;;;;11.63;5.00;;;;;;;0.00;0.00;73454.78;10544006;27;20172;-74
2023/05/05 16:21:47;;;;;;;11.45;5.47;;;;;;;0.01;0.00;59042.03;10547340;28;20157;-76
2023/05/05 16:26:48;;;;;;;8.05;3.35;;;;;;;0.00;0.00;73575.31;10565203;28;20036;-78
2023/05/05 16:31:50;;;;;;;4.97;1.85;;;;;;;0.00;0.00;73709.59;10582905;28;20059;-81
2023/05/05 16:36:52;;;;;;;2.65;1.20;;;;;;;0.00;0.00;73782.84;10588639;28;20039;-80
2023/05/05 16:41:54;;;;;;;3.95;1.38;;;;;;;0.00;0.00;73813.34;10596097;28;20058;-79
2023/05/05 16:46:56;;;;;;;2.60;1.15;;;;;;;0.00;0.00;73822.50;10587482;28;20103;-79
2023/05/05 16:51:58;;;;;;;2.13;0.93;;;;;;;0.00;0.00;73828.63;10574543;28;20044;-79
2023/05/05 16:57:01;;;;;;;2.55;1.33;;;;;;;0.00;0.00;73821.00;10587633;28;20035;-78
2023/05/05 17:02:02;;;;;;;2.00;1.13;;;;;;;0.00;0.00;73827.09;10603819;28;20046;-78
2023/05/05 17:07:05;;;;;;;4.20;1.50;;;;;;;0.00;0.00;73825.56;10597760;28;20396;-78
2023/05/05 17:12:07;;;;;;;4.03;1.83;;;;;;;0.00;0.00;73828.63;10566332;28;20050;-77
2023/05/05 17:17:09;;;;;;;4.60;2.25;;;;;;;0.00;0.00;73824.03;10560148;27;20526;-78
2023/05/05 17:22:10;;;;;;;5.13;2.70;;;;;;;0.00;0.00;73819.47;10564620;28;20054;-78
2023/05/05 17:27:12;;;;;;;8.57;2.78;;;;;;;0.00;0.00;73819.47;10547907;28;20048;-77
2023/05/05 17:32:14;;;;;;;6.70;3.42;;;;;;;0.00;0.00;73804.19;10551579;28;20047;-77
2023/05/05 17:37:15;;;;;;;6.15;3.38;;;;;;;0.00;0.00;73801.16;10566453;28;20066;-78
2023/05/05 17:42:21;;;;;;;6.07;2.63;;;;;;;0.00;0.00;73785.88;10556560;28;20078;-76
2023/05/05 17:47:23;;;;;;;4.65;2.00;;;;;;;0.00;0.00;73781.31;10557927;28;20036;-75
2023/05/05 17:52:25;;;;;;;4.03;1.98;;;;;;;0.00;0.00;73782.84;10548461;28;20044;-76
2023/05/05 17:57:27;;;;;;;4.43;1.95;;;;;;;0.00;0.00;73787.41;10545133;28;20071;-76
2023/05/05 18:02:29;;;;;;;5.00;2.28;;;;;;;0.00;0.00;73779.78;10555605;28;20044;-77
2023/05/05 18:07:32;;;;;;;6.22;3.03;;;;;;;0.00;0.00;73785.88;10543525;27;20048;-82
2023/05/05 18:12:34;;;;;;;6.70;2.70;;;;;;;0.00;0.00;73784.38;10548346;28;20525;-82
2023/05/05 18:17:36;;;;;;;6.20;3.05;;;;;;;0.00;0.00;73798.09;10555600;27;20039;-83
2023/05/05 18:22:38;;;;;;;6.65;3.15;;;;;;;0.00;0.00;73810.31;10550633;27;20626;-83
2023/05/05 18:27:40;;;;;;;8.88;3.28;;;;;;;0.00;0.00;73807.25;10545039;27;20035;-83
2023/05/05 18:32:42;;;;;;;8.77;4.47;;;;;;;0.00;0.00;73795.03;10551450;27;20619;-85
2023/05/05 18:37:43;;;;;;;14.65;5.40;;;;;;;0.00;0.00;73792.00;10545161;27;20515;-83
2023/05/05 18:42:45;;;;;;;12.18;4.75;;;;;;;0.00;0.00;73792.00;10539989;28;20669;-83
2023/05/05 18:47:47;;;;;;;13.25;6.85;;;;;;;0.00;0.00;73805.72;10558136;27;20108;-82
2023/05/05 18:52:49;;;;;;;12.48;6.00;;;;;;;0.00;0.00;73793.53;10558938;28;20049;-83
2023/05/05 18:57:51;;;;;;;14.13;5.85;;;;;;;0.00;0.00;73788.94;10542226;27;20047;-83
2023/05/05 19:02:53;;;;;;;15.43;6.82;;;;;;;0.00;0.00;73788.94;10531224;27;20086;-81
2023/05/05 19:07:55;;;;;;;18.50;6.72;;;;;;;0.00;0.00;73798.09;10543823;28;20098;-82
2023/05/05 19:12:57;;;;;;;12.63;6.60;;;;;;;0.00;0.00;73798.09;10560185;27;20061;-81
2023/05/05 19:17:59;;;;;;;10.70;6.15;;;;;;;0.00;0.00;73805.72;10557329;27;20074;-82
2023/05/05 19:23:03;;;;;;;14.23;5.88;;;;;;;0.00;0.00;73804.19;10558949;27;20055;-81
2023/05/05 19:28:05;;;;;;;11.43;5.80;;;;;;;0.00;0.00;73813.34;10558955;28;20039;-80
2023/05/05 19:33:06;;;;;;;11.32;5.20;;;;;;;0.00;0.00;73813.34;10563569;28;20079;-80
2023/05/05 19:38:09;;;;;;;13.32;6.60;;;;;;;0.00;0.00;73819.47;10540468;28;20055;-80
2023/05/05 19:43:10;;;;;;;12.45;6.00;;;;;;;0.00;0.00;73808.78;10566712;28;20575;-79
2023/05/05 19:48:12;;;;;;;20.15;7.90;;;;;;;0.00;0.00;73813.34;10545236;28;20040;-79
2023/05/05 19:53:13;;;;;;;14.23;6.57;;;;;;;0.00;0.00;73807.25;10544526;28;20503;-78
2023/05/05 19:58:15;;;;;;;15.35;7.15;;;;;;;0.00;0.00;73813.34;10551500;28;20051;-79
2023/05/05 20:03:17;;;;;;;14.45;6.53;;;;;;;0.00;0.00;73811.84;10568115;27;20503;-79
2023/05/05 20:08:18;;;;;;;12.30;6.25;;;;;;;0.00;0.00;73824.03;10563890;28;20158;-79
2023/05/05 20:13:21;;;;;;;14.25;6.72;;;;;;;0.00;0.00;73830.16;10563450;28;20070;-78
2023/05/05 20:18:24;;;;;;;10.75;5.90;;;;;;;0.00;0.00;73827.09;10560811;27;20039;-79
2023/05/05 20:23:26;;;;;;;11.05;5.68;;;;;;;0.00;0.00;73825.56;10552563;28;20044;-78
2023/05/05 20:28:30;;;;;;;10.75;6.00;;;;;;;0.00;0.00;73814.88;10555473;28;20028;-79
2023/05/05 20:33:32;;;;;;;14.13;6.55;;;;;;;0.00;0.00;73822.50;10552895;28;20056;-78
2023/05/05 20:38:33;;;;;;;13.02;6.82;;;;;;;0.00;0.00;73817.94;10552190;28;20481;-78
2023/05/05 20:43:36;;;;;;;10.98;6.32;;;;;;;0.00;0.00;73819.47;10557031;28;20510;-78
2023/05/05 20:48:38;;;;;;;11.63;5.35;;;;;;;0.00;0.00;73816.41;10569774;28;20044;-77
2023/05/05 20:53:43;;;;;;;15.10;6.15;;;;;;;0.00;0.00;73821.00;10567061;27;20040;-79
2023/05/05 20:58:45;;;;;;;12.00;6.03;;;;;;;0.00;0.00;73825.56;10576082;27;20032;-78
2023/05/05 21:03:46;;;;;;;11.25;5.28;;;;;;;0.00;0.00;73830.16;10577964;27;20147;-78
2023/05/05 21:08:49;;;;;;;11.32;6.15;;;;;;;0.00;0.00;73837.78;10566710;28;20128;-78
2023/05/05 21:13:51;;;;;;;11.77;5.72;;;;;;;0.00;0.00;73827.09;10548535;28;20064;-78
2023/05/05 21:18:53;;;;;;;11.85;6.15;;;;;;;0.00;0.00;73831.66;10532376;28;20042;-77
2023/05/05 21:23:56;;;;;;;12.82;6.25;;;;;;;0.00;0.00;73834.72;10572933;27;20807;-77
2023/05/05 21:28:58;;;;;;;16.13;7.53;;;;;;;0.00;0.00;73836.25;10570835;28;20095;-77
2023/05/05 21:34:00;;;;;;;13.57;7.00;;;;;;;0.00;0.00;73842.34;10553558;27;20112;-78
2023/05/05 21:39:01;;;;;;;12.63;7.15;;;;;;;0.00;0.00;73856.09;10564945;27;20050;-79
2023/05/05 21:44:03;;;;;;;13.02;5.93;;;;;;;0.00;0.00;73862.19;10562511;28;20040;-78
2023/05/05 21:49:16;;;;;;;16.13;6.80;;;;;;;0.00;0.00;73880.50;10559864;28;20458;-77
2023/05/05 21:54:18;;;;;;;12.75;5.65;;;;;;;0.00;0.00;73886.59;10537095;28;20052;-78
2023/05/05 21:59:20;;;;;;;14.45;5.95;;;;;;;0.00;0.00;73894.22;10555082;28;20035;-77
2023/05/05 22:04:22;;;;;;;12.82;5.90;;;;;;;0.00;0.00;73903.38;10554774;28;20086;-78
2023/05/05 22:09:24;;;;;;;13.73;5.28;;;;;;;0.00;0.00;73900.34;10569435;28;20084;-78
2023/05/05 22:14:26;;;;;;;13.40;5.45;;;;;;;0.00;0.00;73911.00;10553537;28;20058;-77
2023/05/05 22:19:28;;;;;;;10.15;5.00;;;;;;;0.00;0.00;73915.59;10560855;28;20047;-77
2023/05/05 22:24:30;;;;;;;10.30;5.15;;;;;;;0.00;0.00;73915.59;10567154;28;20436;-78
2023/05/05 22:29:32;;;;;;;9.90;4.95;;;;;;;0.00;0.00;73920.16;10547034;28;20136;-77
2023/05/05 22:34:37;;;;;;;10.63;4.43;;;;;;;0.00;0.00;73924.75;10562717;28;20107;-78
2023/05/05 22:39:38;;;;;;;8.40;4.22;;;;;;;0.00;0.00;73932.38;10557879;28;20042;-77
2023/05/05 22:44:40;;;;;;;11.38;4.20;;;;;;;0.00;0.00;73938.47;10549010;28;20731;-78
2023/05/05 22:49:42;;;;;;;11.45;3.97;;;;;;;0.00;0.00;73936.94;10539956;28;20123;-76
2023/05/05 22:54:43;;;;;;;9.90;4.47;;;;;;;0.00;0.00;73935.44;10550978;28;20044;-77
2023/05/05 22:59:45;;;;;;;13.65;4.57;;;;;;;0.00;0.00;73933.91;10531733;28;20442;-77
2023/05/05 23:04:47;;;;;;;8.40;4.25;;;;;;;0.00;0.00;73935.44;10563695;28;20067;-78
2023/05/05 23:09:49;;;;;;;12.40;4.35;;;;;;;0.00;0.00;73938.47;10548205;28;20040;-77
2023/05/05 23:14:51;;;;;;;8.38;3.72;;;;;;;0.00;0.00;73935.44;10542711;27;20081;-77
2023/05/05 23:19:52;;;;;;;6.07;3.22;;;;;;;0.00;0.00;73938.47;10539382;28;20036;-76
2023/05/05 23:24:54;;;;;;;9.20;3.88;;;;;;;0.00;0.00;73944.59;10555096;28;20072;-76
2023/05/05 23:29:56;;;;;;;8.45;3.80;;;;;;;0.00;0.00;73947.63;10563114;28;20589;-77
2023/05/05 23:34:57;;;;;;;9.63;4.90;;;;;;;0.00;0.00;73947.63;10555134;28;20050;-78
2023/05/05 23:39:59;;;;;;;13.07;4.65;;;;;;;0.00;0.00;73946.09;10555055;28;20465;-77
2023/05/05 23:45:01;;;;;;;7.97;3.85;;;;;;;0.00;0.00;73943.06;10558172;28;20142;-78
2023/05/05 23:50:03;;;;;;;8.02;4.13;;;;;;;0.00;0.00;73950.69;10547829;28;20040;-76
2023/05/05 23:55:05;;;;;;;9.23;4.70;;;;;;;0.00;0.00;73953.75;10555359;28;20140;-77
